createdAt,value
2017-08-09T00:01:05.265Z,20.80
2017-08-09T00:03:31.597Z,20.83
2017-08-09T00:05:57.838Z,22.57
2017-08-09T00:08:24.073Z,21.40
2017-08-09T00:10:50.354Z,22.37
2017-08-09T00:13:16.609Z,23.40
2017-08-09T00:15:42.864Z,22.97
2017-08-09T00:18:09.121Z,23.17
2017-08-09T00:20:35.349Z,23.33
2017-08-09T00:23:01.633Z,23.20
2017-08-09T00:25:28.673Z,22.40
2017-08-09T00:27:55.634Z,21.77
2017-08-09T00:30:21.874Z,20.53
2017-08-09T00:32:48.113Z,21.27
2017-08-09T00:35:14.374Z,22.83
2017-08-09T00:37:40.621Z,21.33
2017-08-09T00:40:06.891Z,21.40
2017-08-09T00:42:33.885Z,20.03
2017-08-09T00:45:00.141Z,20.70
2017-08-09T00:47:26.464Z,20.90
2017-08-09T00:49:52.686Z,25.10
2017-08-09T00:52:20.613Z,27.63
2017-08-09T00:54:46.856Z,26.97
2017-08-09T00:57:13.850Z,30.20
2017-08-09T00:59:40.109Z,29.60
2017-08-09T01:02:06.445Z,29.00
2017-08-09T01:04:32.725Z,31.60
2017-08-09T01:06:59.009Z,31.40
2017-08-09T01:09:25.816Z,31.80
2017-08-09T01:11:52.057Z,32.73
2017-08-09T01:14:18.285Z,35.10
2017-08-09T01:16:44.566Z,37.57
2017-08-09T01:19:10.820Z,38.37
2017-08-09T01:21:44.987Z,37.30
2017-08-09T01:24:11.217Z,38.57
2017-08-09T01:26:37.446Z,39.33
2017-08-09T01:29:04.581Z,38.97
2017-08-09T01:31:31.553Z,39.27
2017-08-09T01:33:57.793Z,39.50
2017-08-09T01:36:24.181Z,38.67
2017-08-09T01:38:51.176Z,38.57
2017-08-09T01:41:17.417Z,40.23
2017-08-09T01:43:43.770Z,39.90
2017-08-09T01:46:10.018Z,42.17
2017-08-09T01:48:36.271Z,40.93
2017-08-09T01:51:03.873Z,42.10
2017-08-09T01:53:30.618Z,40.10
2017-08-09T01:55:57.613Z,41.90
2017-08-09T01:58:23.992Z,40.80
2017-08-09T02:00:50.988Z,43.83
2017-08-09T02:03:17.248Z,42.17
2017-08-09T02:05:43.501Z,43.97
2017-08-09T02:08:09.786Z,41.53
2017-08-09T02:10:36.037Z,40.23
2017-08-09T02:13:02.345Z,38.60
2017-08-09T02:15:28.595Z,39.33
2017-08-09T02:17:54.902Z,39.07
2017-08-09T02:20:21.924Z,43.00
2017-08-09T02:22:48.185Z,39.20
2017-08-09T02:25:14.450Z,39.93
2017-08-09T02:27:40.775Z,38.77
2017-08-09T02:30:07.043Z,37.83
2017-08-09T02:32:33.333Z,37.60
2017-08-09T02:35:04.265Z,36.63
2017-08-09T02:37:31.297Z,38.47
2017-08-09T02:39:58.381Z,36.33
2017-08-09T02:42:25.379Z,36.97
2017-08-09T02:44:51.632Z,35.67
2017-08-09T02:47:17.875Z,35.70
2017-08-09T02:49:44.911Z,33.97
2017-08-09T02:52:11.187Z,35.27
2017-08-09T02:54:40.143Z,31.80
2017-08-09T02:57:06.450Z,32.20
2017-08-09T02:59:32.677Z,28.23
2017-08-09T03:01:58.916Z,26.73
2017-08-09T03:04:25.210Z,23.13
2017-08-09T03:06:51.487Z,23.03
2017-08-09T03:09:17.783Z,20.33
2017-08-09T03:11:44.858Z,17.63
2017-08-09T03:14:11.149Z,14.63
2017-08-09T03:16:37.425Z,13.93
2017-08-09T03:19:05.415Z,15.57
2017-08-09T03:21:31.706Z,14.30
2017-08-09T03:23:58.057Z,14.87
2017-08-09T03:26:26.011Z,15.37
2017-08-09T03:28:52.298Z,16.50
2017-08-09T03:31:18.553Z,16.27
2017-08-09T03:33:44.853Z,15.13
2017-08-09T03:36:11.157Z,16.87
2017-08-09T03:38:37.433Z,15.97
2017-08-09T03:41:06.239Z,16.43
2017-08-09T03:43:32.562Z,15.93
2017-08-09T03:45:58.813Z,15.80
2017-08-09T03:48:25.146Z,16.50
2017-08-09T03:50:51.464Z,15.13
2017-08-09T03:53:17.743Z,15.70
2017-08-09T03:55:44.967Z,16.00
2017-08-09T03:58:11.242Z,16.17
2017-08-09T04:00:37.510Z,14.00
2017-08-09T04:03:06.183Z,15.80
2017-08-09T04:05:32.472Z,15.53
2017-08-09T04:07:58.755Z,17.00
2017-08-09T04:10:26.596Z,15.23
2017-08-09T04:12:52.858Z,14.90
2017-08-09T04:15:19.094Z,15.80
2017-08-09T04:17:46.163Z,15.00
2017-08-09T04:20:13.242Z,15.00
2017-08-09T04:22:39.487Z,15.60
2017-08-09T04:25:06.735Z,14.50
2017-08-09T04:27:33.003Z,15.10
2017-08-09T04:29:59.270Z,15.50
2017-08-09T04:32:25.646Z,16.93
2017-08-09T04:34:51.906Z,17.70
2017-08-09T04:37:18.186Z,16.87
2017-08-09T04:39:45.216Z,17.27
2017-08-09T04:42:11.486Z,18.93
2017-08-09T04:44:38.516Z,18.00
2017-08-09T04:47:04.852Z,20.07
2017-08-09T04:49:31.127Z,20.73
2017-08-09T04:51:57.416Z,21.00
2017-08-09T04:54:23.721Z,19.77
2017-08-09T04:56:50.666Z,20.53
2017-08-09T04:59:16.952Z,20.53
2017-08-09T05:01:43.431Z,22.40
2017-08-09T05:04:09.724Z,21.97
2017-08-09T05:06:36.748Z,21.80
2017-08-09T05:09:03.370Z,22.30
2017-08-09T05:11:29.655Z,21.93
2017-08-09T05:13:55.932Z,25.23
2017-08-09T05:16:22.338Z,22.97
2017-08-09T05:18:49.546Z,21.40
2017-08-09T05:21:15.830Z,24.20
2017-08-09T05:23:42.866Z,24.17
2017-08-09T05:26:09.166Z,23.13
2017-08-09T05:28:35.483Z,24.43
2017-08-09T05:31:02.137Z,26.73
2017-08-09T05:33:28.402Z,24.77
2017-08-09T05:35:54.697Z,25.40
2017-08-09T05:38:21.098Z,24.10
2017-08-09T05:40:47.373Z,28.03
2017-08-09T05:43:13.731Z,27.90
2017-08-09T05:45:40.034Z,24.30
2017-08-09T05:48:06.334Z,25.57
2017-08-09T05:50:32.664Z,23.10
2017-08-09T05:52:59.008Z,25.27
2017-08-09T05:55:25.298Z,25.80
2017-08-09T05:58:05.532Z,24.80
2017-08-09T06:00:33.225Z,24.73
2017-08-09T06:02:59.540Z,24.03
2017-08-09T06:05:25.854Z,24.80
2017-08-09T06:07:52.872Z,26.80
2017-08-09T06:10:19.164Z,27.17
2017-08-09T06:12:46.427Z,23.97
2017-08-09T06:15:12.694Z,24.10
2017-08-09T06:17:38.986Z,25.67
2017-08-09T06:20:06.158Z,27.13
2017-08-09T06:22:33.147Z,23.70
2017-08-09T06:24:59.434Z,24.20
2017-08-09T06:27:26.471Z,24.07
2017-08-09T06:29:53.547Z,26.67
2017-08-09T06:32:19.838Z,27.93
2017-08-09T06:34:47.438Z,25.10
2017-08-09T06:37:13.766Z,26.67
2017-08-09T06:39:40.115Z,25.63
2017-08-09T06:42:07.146Z,25.30
2017-08-09T06:44:34.184Z,24.33
2017-08-09T06:47:00.534Z,23.37
2017-08-09T06:49:27.603Z,23.23
2017-08-09T06:51:54.625Z,22.70
2017-08-09T06:54:20.903Z,22.40
2017-08-09T06:56:48.503Z,21.23
2017-08-09T06:59:14.809Z,21.87
2017-08-09T07:01:41.187Z,22.93
2017-08-09T07:04:07.990Z,20.73
2017-08-09T07:06:34.294Z,19.57
2017-08-09T07:09:01.322Z,21.50
2017-08-09T07:11:27.615Z,20.23
2017-08-09T07:13:54.604Z,16.97
2017-08-09T07:16:20.887Z,18.37
2017-08-09T07:18:47.967Z,20.40
2017-08-09T07:21:14.234Z,19.70
2017-08-09T07:23:40.515Z,18.63
2017-08-09T07:26:07.337Z,16.63
2017-08-09T07:28:33.762Z,16.97
2017-08-09T07:31:00.058Z,14.40
2017-08-09T07:33:26.339Z,14.63
2017-08-09T07:35:52.619Z,12.30
2017-08-09T07:38:18.898Z,12.23
2017-08-09T07:40:46.239Z,12.60
2017-08-09T07:43:12.524Z,13.40
2017-08-09T07:45:38.779Z,11.10
2017-08-09T07:48:05.805Z,11.57
2017-08-09T07:50:32.833Z,10.70
2017-08-09T07:52:59.107Z,11.70
2017-08-09T07:55:25.450Z,9.53
2017-08-09T07:57:52.471Z,11.23
2017-08-09T08:00:18.731Z,11.27
2017-08-09T08:02:46.922Z,14.20
2017-08-09T08:05:13.927Z,11.20
2017-08-09T08:07:40.191Z,12.07
2017-08-09T08:10:06.648Z,13.53
2017-08-09T08:12:33.656Z,13.00
2017-08-09T08:14:59.936Z,11.37
2017-08-09T08:17:27.051Z,9.70
2017-08-09T08:19:53.332Z,10.07
2017-08-09T08:22:19.604Z,9.63
2017-08-09T08:24:45.932Z,11.10
2017-08-09T08:27:12.186Z,10.07
2017-08-09T08:29:38.466Z,12.57
2017-08-09T08:32:05.511Z,11.10
2017-08-09T08:34:32.509Z,10.97
2017-08-09T08:36:58.810Z,11.43
2017-08-09T08:39:25.257Z,11.27
2017-08-09T08:41:51.544Z,11.60
2017-08-09T08:44:17.824Z,13.20
2017-08-09T08:46:45.478Z,12.33
2017-08-09T08:49:12.495Z,12.53
2017-08-09T08:51:38.767Z,11.70
2017-08-09T08:54:05.783Z,15.30
2017-08-09T08:56:32.066Z,11.57
2017-08-09T08:58:59.059Z,10.80
2017-08-09T09:01:25.348Z,9.23
2017-08-09T09:03:52.811Z,10.80
2017-08-09T09:06:19.874Z,11.20
2017-08-09T09:08:47.418Z,10.03
2017-08-09T09:11:14.450Z,11.33
2017-08-09T09:13:40.712Z,12.17
2017-08-09T09:16:07.875Z,10.57
2017-08-09T09:18:34.910Z,13.27
2017-08-09T09:21:01.965Z,12.53
2017-08-09T09:23:28.272Z,13.00
2017-08-09T09:25:54.539Z,13.03
2017-08-09T09:28:20.786Z,12.40
2017-08-09T09:30:49.091Z,12.80
2017-08-09T09:33:15.367Z,13.37
2017-08-09T09:35:41.706Z,13.40
2017-08-09T09:38:08.003Z,12.57
2017-08-09T09:40:34.303Z,11.97
2017-08-09T09:43:01.314Z,12.30
2017-08-09T09:45:27.635Z,11.63
2017-08-09T09:47:53.928Z,13.13
2017-08-09T09:50:20.960Z,11.83
2017-08-09T09:52:47.307Z,11.53
2017-08-09T09:55:13.591Z,13.37
2017-08-09T09:57:39.867Z,11.00
2017-08-09T10:00:06.288Z,12.10
2017-08-09T10:02:32.562Z,12.40
2017-08-09T10:05:00.172Z,14.03
2017-08-09T10:07:26.619Z,12.97
2017-08-09T10:09:52.896Z,13.50
2017-08-09T10:12:19.919Z,14.00
2017-08-09T10:14:47.068Z,11.60
2017-08-09T10:17:13.370Z,15.83
2017-08-09T10:19:39.626Z,13.33
2017-08-09T10:22:05.952Z,12.60
2017-08-09T10:24:32.935Z,13.00
2017-08-09T10:26:59.208Z,15.20
2017-08-09T10:29:26.339Z,12.90
2017-08-09T10:31:52.614Z,14.33
2017-08-09T10:34:19.644Z,14.80
2017-08-09T10:36:47.538Z,13.57
2017-08-09T10:39:14.548Z,14.77
2017-08-09T10:41:40.825Z,14.03
2017-08-09T10:44:07.267Z,14.17
2017-08-09T10:46:35.358Z,14.70
2017-08-09T10:49:02.632Z,17.10
2017-08-09T10:51:29.280Z,16.17
2017-08-09T10:53:55.860Z,14.90
2017-08-09T10:56:22.976Z,17.17
2017-08-09T10:58:50.695Z,16.53
2017-08-09T11:01:17.080Z,18.40
2017-08-09T11:03:43.381Z,19.13
2017-08-09T11:06:13.959Z,18.53
2017-08-09T11:08:40.372Z,17.27
2017-08-09T11:11:07.057Z,14.30
2017-08-09T11:13:34.340Z,15.40
2017-08-09T11:16:01.479Z,15.80
2017-08-09T11:18:27.800Z,13.87
2017-08-09T11:20:54.407Z,11.53
2017-08-09T11:23:20.676Z,12.90
2017-08-09T11:25:46.950Z,15.23
2017-08-09T11:28:13.948Z,14.73
2017-08-09T11:30:41.027Z,16.80
2017-08-09T11:33:08.119Z,13.43
2017-08-09T11:35:35.150Z,13.73
2017-08-09T11:38:02.295Z,18.00
2017-08-09T11:40:28.743Z,16.63
2017-08-09T11:42:55.774Z,18.80
2017-08-09T11:45:22.098Z,17.20
2017-08-09T11:47:48.548Z,18.33
2017-08-09T11:50:16.007Z,16.77
2017-08-09T11:52:42.407Z,18.27
2017-08-09T11:55:08.711Z,18.00
2017-08-09T11:57:35.002Z,18.30
2017-08-09T12:00:01.694Z,18.37
2017-08-09T12:02:28.132Z,19.27
2017-08-09T12:04:54.898Z,21.33
2017-08-09T12:07:33.572Z,22.40
2017-08-09T12:09:59.940Z,19.60
2017-08-09T12:12:26.419Z,24.40
2017-08-09T12:14:53.517Z,21.93
2017-08-09T12:17:20.757Z,20.73
2017-08-09T12:19:47.167Z,20.13
2017-08-09T12:22:13.538Z,19.00
2017-08-09T12:24:40.978Z,17.17
2017-08-09T12:27:07.243Z,19.63
2017-08-09T12:29:33.552Z,17.80
2017-08-09T12:32:00.016Z,18.20
2017-08-09T12:34:27.139Z,18.83
2017-08-09T12:36:53.486Z,19.27
2017-08-09T12:39:19.786Z,17.00
2017-08-09T12:41:46.823Z,17.27
2017-08-09T12:44:13.849Z,15.17
2017-08-09T12:46:41.367Z,15.53
2017-08-09T12:49:08.599Z,17.27
2017-08-09T12:51:35.735Z,16.57
2017-08-09T12:54:02.066Z,18.70
2017-08-09T12:56:28.363Z,18.57
2017-08-09T12:58:54.762Z,18.13
2017-08-09T13:01:21.910Z,15.97
2017-08-09T13:03:48.318Z,14.27
2017-08-09T13:06:14.580Z,16.53
2017-08-09T13:08:42.415Z,13.33
2017-08-09T13:11:08.685Z,14.07
2017-08-09T13:13:35.715Z,14.70
2017-08-09T13:16:02.035Z,13.73
2017-08-09T13:18:29.156Z,14.67
2017-08-09T13:20:55.427Z,13.93
2017-08-09T13:23:21.718Z,13.60
2017-08-09T13:25:48.730Z,13.73
2017-08-09T13:28:15.022Z,15.67
2017-08-09T13:30:43.188Z,13.80
2017-08-09T13:33:10.828Z,13.20
2017-08-09T13:35:37.222Z,13.20
2017-08-09T13:38:03.520Z,11.63
2017-08-09T13:40:30.757Z,13.77
2017-08-09T13:42:56.995Z,13.40
2017-08-09T13:45:23.398Z,11.23
2017-08-09T13:47:49.699Z,11.40
2017-08-09T13:50:17.455Z,11.90
2017-08-09T13:52:44.855Z,10.70
2017-08-09T13:55:12.286Z,10.80
2017-08-09T13:57:39.839Z,11.40
2017-08-09T14:00:07.897Z,10.03
2017-08-09T14:02:34.950Z,11.07
2017-08-09T14:05:01.344Z,9.90
2017-08-09T14:07:27.640Z,10.50
2017-08-09T14:10:05.813Z,10.70
2017-08-09T14:12:32.285Z,10.30
2017-08-09T14:14:58.826Z,10.47
2017-08-09T14:17:26.170Z,10.77
2017-08-09T14:19:52.613Z,10.60
2017-08-09T14:22:26.588Z,9.90
2017-08-09T14:24:52.957Z,10.10
2017-08-09T14:27:21.175Z,9.93
2017-08-09T14:29:47.468Z,8.60
2017-08-09T14:32:14.502Z,9.07
2017-08-09T14:34:41.464Z,7.30
2017-08-09T14:37:07.896Z,7.37
2017-08-09T14:39:34.770Z,6.10
2017-08-09T14:42:01.939Z,6.60
2017-08-09T14:44:28.946Z,6.33
2017-08-09T14:46:55.658Z,10.43
2017-08-09T14:49:21.997Z,5.77
2017-08-09T14:51:48.277Z,7.57
2017-08-09T14:54:15.362Z,5.67
2017-08-09T14:56:41.653Z,5.33
2017-08-09T14:59:07.947Z,5.50
2017-08-09T15:01:35.085Z,4.47
2017-08-09T15:04:01.364Z,5.67
2017-08-09T15:06:28.408Z,4.20
2017-08-09T15:08:54.730Z,6.07
2017-08-09T15:11:28.672Z,4.70
2017-08-09T15:13:54.939Z,5.00
2017-08-09T15:16:30.845Z,4.57
2017-08-09T15:18:57.180Z,4.80
2017-08-09T15:21:23.492Z,5.40
2017-08-09T15:23:49.968Z,4.50
2017-08-09T15:26:16.256Z,5.10
2017-08-09T15:28:42.552Z,5.17
2017-08-09T15:31:08.864Z,5.10
2017-08-09T15:33:35.143Z,5.70
2017-08-09T15:36:01.410Z,5.20
2017-08-09T15:38:28.519Z,4.90
2017-08-09T15:40:54.815Z,6.20
2017-08-09T15:43:21.845Z,5.30
2017-08-09T15:45:48.922Z,4.27
2017-08-09T15:48:15.933Z,5.07
2017-08-09T15:50:42.178Z,8.50
2017-08-09T15:53:09.380Z,8.03
2017-08-09T15:55:35.723Z,24.27
2017-08-09T15:58:02.002Z,11.77
2017-08-09T16:00:28.427Z,9.27
2017-08-09T16:02:54.725Z,6.30
2017-08-09T16:05:21.020Z,7.87
2017-08-09T16:07:47.351Z,7.10
2017-08-09T16:10:13.614Z,6.27
2017-08-09T16:12:41.604Z,5.73
2017-08-09T16:15:08.646Z,5.47
2017-08-09T16:17:36.607Z,7.70
2017-08-09T16:20:02.899Z,7.00
2017-08-09T16:22:29.244Z,7.60
2017-08-09T16:24:55.527Z,11.70
2017-08-09T16:27:21.822Z,7.57
2017-08-09T16:29:48.227Z,19.80
2017-08-09T16:32:14.482Z,10.77
2017-08-09T16:34:40.900Z,7.40
2017-08-09T16:37:07.327Z,7.27
2017-08-09T16:39:33.579Z,5.93
2017-08-09T16:41:59.837Z,7.70
2017-08-09T16:44:26.135Z,7.60
2017-08-09T16:46:52.411Z,6.73
2017-08-09T16:49:19.492Z,6.70
2017-08-09T16:51:45.806Z,7.50
2017-08-09T16:54:12.055Z,7.17
2017-08-09T16:56:38.300Z,7.70
2017-08-09T16:59:04.598Z,7.30
2017-08-09T17:01:30.859Z,7.03
2017-08-09T17:03:57.110Z,8.67
2017-08-09T17:06:23.417Z,7.80
2017-08-09T17:08:49.705Z,6.23
2017-08-09T17:11:16.000Z,7.13
2017-08-09T17:13:43.331Z,7.10
2017-08-09T17:16:09.598Z,6.00
2017-08-09T17:18:36.179Z,20.00
2017-08-09T17:21:03.206Z,11.80
2017-08-09T17:23:30.243Z,7.50
2017-08-09T17:25:56.520Z,6.90
2017-08-09T17:28:23.421Z,6.33
2017-08-09T17:30:49.650Z,6.87
2017-08-09T17:33:15.951Z,6.10
2017-08-09T17:35:42.271Z,6.50
2017-08-09T17:38:08.522Z,5.87
2017-08-09T17:40:34.801Z,6.23
2017-08-09T17:43:01.094Z,5.13
2017-08-09T17:45:27.431Z,6.27
2017-08-09T17:47:53.708Z,5.20
2017-08-09T17:50:20.642Z,5.97
2017-08-09T17:52:46.921Z,6.53
2017-08-09T17:55:13.210Z,5.10
2017-08-09T17:57:39.785Z,4.73
2017-08-09T18:00:06.075Z,4.90
2017-08-09T18:02:32.389Z,5.53
2017-08-09T18:04:58.811Z,4.87
2017-08-09T18:07:25.078Z,5.10
2017-08-09T18:09:51.362Z,6.33
2017-08-09T18:12:17.688Z,4.83
2017-08-09T18:14:45.327Z,5.47
2017-08-09T18:17:11.576Z,5.60
2017-08-09T18:19:38.007Z,6.60
2017-08-09T18:22:04.259Z,6.20
2017-08-09T18:24:30.609Z,5.70
2017-08-09T18:26:56.988Z,5.43
2017-08-09T18:29:23.243Z,5.70
2017-08-09T18:31:49.501Z,4.90
2017-08-09T18:34:15.794Z,5.13
2017-08-09T18:36:42.930Z,4.47
2017-08-09T18:39:09.199Z,4.87
2017-08-09T18:41:35.507Z,3.60
2017-08-09T18:44:01.827Z,4.47
2017-08-09T18:46:28.911Z,5.20
2017-08-09T18:48:55.219Z,3.70
2017-08-09T18:51:21.489Z,4.10
2017-08-09T18:53:47.761Z,3.93
2017-08-09T18:58:46.863Z,4.97
2017-08-09T19:01:13.161Z,4.00
2017-08-09T19:03:39.597Z,4.73
2017-08-09T19:06:06.079Z,5.07
2017-08-09T19:08:32.360Z,4.83
2017-08-09T19:10:58.638Z,4.97
2017-08-09T19:13:24.959Z,4.30
2017-08-09T19:16:03.495Z,5.20
2017-08-09T19:18:30.672Z,4.73
2017-08-09T19:20:56.950Z,4.50
2017-08-09T19:23:23.967Z,4.97
2017-08-09T19:25:50.267Z,3.80
2017-08-09T19:28:16.583Z,4.53
2017-08-09T19:30:42.851Z,4.03
2017-08-09T19:33:09.234Z,4.50
2017-08-09T19:35:35.513Z,4.30
2017-08-09T19:38:01.766Z,4.43
2017-08-09T19:40:28.611Z,4.70
2017-08-09T19:42:54.895Z,5.17
2017-08-09T19:45:21.188Z,5.53
2017-08-09T19:47:47.470Z,5.43
2017-08-09T19:50:14.487Z,6.23
2017-08-09T19:52:47.678Z,5.53
2017-08-09T19:55:13.963Z,5.27
2017-08-09T19:57:40.231Z,5.90
2017-08-09T20:00:06.675Z,5.73
2017-08-09T20:02:32.955Z,5.90
2017-08-09T20:04:59.490Z,5.93
2017-08-09T20:07:25.882Z,5.50
2017-08-09T20:09:52.212Z,6.00
2017-08-09T20:12:18.530Z,6.63
2017-08-09T20:14:44.967Z,6.30
2017-08-09T20:17:13.477Z,5.50
2017-08-09T20:19:39.852Z,7.20
2017-08-09T20:22:06.376Z,6.47
2017-08-09T20:24:32.965Z,6.90
2017-08-09T20:26:59.473Z,6.57
2017-08-09T20:29:26.004Z,7.30
2017-08-09T20:31:52.542Z,6.80
2017-08-09T20:34:19.756Z,6.97
2017-08-09T20:36:46.231Z,7.23
2017-08-09T20:39:12.734Z,6.27
2017-08-09T20:41:39.977Z,6.50
2017-08-09T20:44:06.714Z,6.87
2017-08-09T20:46:33.172Z,7.03
2017-08-09T20:49:00.939Z,64.37
2017-08-09T20:51:27.961Z,21.40
2017-08-09T20:53:54.481Z,16.63
2017-08-09T20:56:21.679Z,8.77
2017-08-09T20:58:49.102Z,7.90
2017-08-09T21:01:16.354Z,8.23
2017-08-09T21:03:43.707Z,6.83
2017-08-09T21:06:11.081Z,8.27
2017-08-09T21:08:38.319Z,8.10
2017-08-09T21:11:04.758Z,8.30
2017-08-09T21:13:32.318Z,7.20
2017-08-09T21:15:58.853Z,7.83
2017-08-09T21:18:27.330Z,7.20
2017-08-09T21:20:53.971Z,7.60
2017-08-09T21:23:21.006Z,7.60
2017-08-09T21:25:47.462Z,7.33
2017-08-09T21:28:14.521Z,8.53
2017-08-09T21:30:40.784Z,8.87
2017-08-09T21:33:08.749Z,9.83
2017-08-09T21:35:35.874Z,8.70
2017-08-09T21:38:02.146Z,10.07
2017-08-09T21:40:28.410Z,9.53
2017-08-09T21:42:54.933Z,9.30
2017-08-09T21:45:22.016Z,8.10
2017-08-09T21:47:48.275Z,8.93
2017-08-09T21:50:16.775Z,9.20
2017-08-09T21:52:43.108Z,8.20
2017-08-09T21:55:10.120Z,9.23
2017-08-09T21:57:36.416Z,9.20
2017-08-09T22:00:03.438Z,8.27
2017-08-09T22:02:30.677Z,7.97
2017-08-09T22:04:57.298Z,8.27
2017-08-09T22:07:23.540Z,8.70
2017-08-09T22:09:49.802Z,9.00
2017-08-09T22:12:16.755Z,9.23
2017-08-09T22:14:43.071Z,8.83
2017-08-09T22:17:09.327Z,8.10
2017-08-09T22:19:47.578Z,8.17
2017-08-09T22:22:13.846Z,10.23
2017-08-09T22:24:40.108Z,8.00
2017-08-09T22:27:07.176Z,8.60
2017-08-09T22:29:34.208Z,8.60
2017-08-09T22:32:01.234Z,9.53
2017-08-09T22:34:27.585Z,9.07
2017-08-09T22:36:53.855Z,8.87
2017-08-09T22:39:20.849Z,9.23
2017-08-09T22:41:47.273Z,8.87
2017-08-09T22:44:13.519Z,8.40
2017-08-09T22:46:39.774Z,10.03
2017-08-09T22:49:06.070Z,8.87
2017-08-09T22:51:32.350Z,9.30
2017-08-09T22:53:58.627Z,9.00
2017-08-09T22:56:25.999Z,9.50
2017-08-09T22:58:52.242Z,8.77
2017-08-09T23:01:18.526Z,8.53
2017-08-09T23:03:44.845Z,9.37
2017-08-09T23:06:11.103Z,8.77
2017-08-09T23:08:37.423Z,9.27
2017-08-09T23:11:03.817Z,9.00
2017-08-09T23:13:30.082Z,8.37
2017-08-09T23:15:56.375Z,8.73
2017-08-09T23:18:22.751Z,9.17
2017-08-09T23:20:49.692Z,9.77
2017-08-09T23:23:15.956Z,9.23
2017-08-09T23:25:42.246Z,8.80
2017-08-09T23:28:08.535Z,9.43
2017-08-09T23:30:34.822Z,8.47
2017-08-09T23:33:01.115Z,8.67
2017-08-09T23:35:28.142Z,8.97
2017-08-09T23:37:54.423Z,8.73
2017-08-09T23:40:21.616Z,8.80
2017-08-09T23:42:47.890Z,8.70
2017-08-09T23:45:14.152Z,9.43
2017-08-09T23:47:41.981Z,9.77
2017-08-09T23:50:08.251Z,9.20
2017-08-09T23:52:35.268Z,9.87
2017-08-09T23:55:01.691Z,9.70
2017-08-09T23:57:27.918Z,9.07
2017-08-09T23:59:54.181Z,9.67
